createdAt,value
2023-04-13T00:00:58.205Z,52.67
2023-04-13T00:03:27.444Z,52.95
2023-04-13T00:05:56.286Z,52.90
2023-04-13T00:08:26.143Z,52.75
2023-04-13T00:10:55.008Z,52.67
2023-04-13T00:13:24.800Z,52.59
2023-04-13T00:15:53.947Z,52.66
2023-04-13T00:18:22.284Z,52.73
2023-04-13T00:20:50.677Z,52.80
2023-04-13T00:23:22.396Z,52.98
2023-04-13T00:25:52.335Z,53.02
2023-04-13T00:28:20.651Z,53.06
2023-04-13T00:30:51.863Z,53.11
2023-04-13T00:33:20.456Z,53.10
2023-04-13T00:35:48.824Z,53.01
2023-04-13T00:38:18.199Z,52.85
2023-04-13T00:40:46.548Z,52.88
2023-04-13T00:43:17.481Z,53.03
2023-04-13T00:45:45.872Z,52.72
2023-04-13T00:48:14.643Z,52.64
2023-04-13T00:50:43.771Z,52.93
2023-04-13T00:53:13.633Z,53.02
2023-04-13T00:55:43.195Z,53.02
2023-04-13T00:58:20.682Z,53.21
2023-04-13T01:00:48.965Z,53.31
2023-04-13T01:03:18.253Z,53.28
2023-04-13T01:05:56.235Z,53.43
2023-04-13T01:08:35.302Z,53.28
2023-04-13T01:11:08.675Z,53.40
2023-04-13T01:13:45.085Z,53.31
2023-04-13T01:16:20.432Z,53.24
2023-04-13T01:18:53.442Z,53.36
2023-04-13T01:21:26.107Z,53.33
2023-04-13T01:24:16.972Z,52.24
2023-04-13T01:26:57.297Z,51.94
2023-04-13T01:29:28.601Z,51.68
2023-04-13T01:31:57.828Z,51.74
2023-04-13T01:34:26.703Z,51.63
2023-04-13T01:36:55.742Z,51.61
2023-04-13T01:39:32.050Z,51.69
2023-04-13T01:42:00.622Z,51.65
2023-04-13T01:44:33.665Z,51.51
2023-04-13T01:47:15.957Z,51.65
2023-04-13T01:49:49.965Z,51.75
2023-04-13T01:52:19.087Z,51.87
2023-04-13T01:54:50.903Z,51.85
2023-04-13T01:57:19.583Z,52.17
2023-04-13T01:59:49.262Z,52.24
2023-04-13T02:02:21.206Z,52.24
2023-04-13T02:04:50.360Z,52.19
2023-04-13T02:07:18.915Z,52.25
2023-04-13T02:09:47.266Z,52.13
2023-04-13T02:12:15.641Z,52.13
2023-04-13T02:14:43.938Z,52.33
2023-04-13T02:17:13.731Z,52.35
2023-04-13T02:19:42.031Z,52.32
2023-04-13T02:22:14.371Z,52.35
2023-04-13T02:24:45.468Z,52.24
2023-04-13T02:27:13.766Z,52.28
2023-04-13T02:29:42.879Z,52.19
2023-04-13T02:32:16.591Z,52.17
2023-04-13T02:34:45.176Z,52.29
2023-04-13T02:37:13.682Z,52.32
2023-04-13T02:39:41.987Z,52.32
2023-04-13T02:42:11.783Z,52.38
2023-04-13T02:44:40.747Z,52.54
2023-04-13T02:47:09.487Z,52.45
2023-04-13T02:49:39.143Z,52.74
2023-04-13T02:52:07.407Z,52.70
2023-04-13T02:54:36.235Z,52.96
2023-04-13T02:57:05.144Z,52.91
2023-04-13T02:59:33.981Z,52.96
2023-04-13T03:02:02.662Z,53.01
2023-04-13T03:04:31.202Z,52.89
2023-04-13T03:07:05.112Z,53.06
2023-04-13T03:09:33.466Z,53.09
2023-04-13T03:12:05.866Z,53.01
2023-04-13T03:14:34.195Z,52.88
2023-04-13T03:17:04.412Z,53.05
2023-04-13T03:19:36.671Z,52.91
2023-04-13T03:22:06.354Z,52.93
2023-04-13T03:24:35.260Z,52.91
2023-04-13T03:27:03.747Z,52.92
2023-04-13T03:29:32.000Z,53.04
2023-04-13T03:32:00.502Z,53.16
2023-04-13T03:34:28.830Z,53.16
2023-04-13T03:36:57.157Z,53.14
2023-04-13T03:39:27.247Z,53.26
2023-04-13T03:41:56.089Z,53.12
2023-04-13T03:44:24.376Z,53.33
2023-04-13T03:46:52.654Z,53.23
2023-04-13T03:49:21.020Z,53.28
2023-04-13T03:51:49.512Z,53.31
2023-04-13T03:54:17.781Z,53.45
2023-04-13T03:56:47.473Z,53.36
2023-04-13T03:59:15.769Z,53.45
2023-04-13T04:01:44.112Z,53.47
2023-04-13T04:04:12.539Z,53.72
2023-04-13T04:06:40.903Z,53.40
2023-04-13T04:09:13.646Z,53.56
2023-04-13T04:11:41.962Z,53.63
2023-04-13T04:14:11.728Z,53.53
2023-04-13T04:16:40.047Z,53.55
2023-04-13T04:19:08.610Z,53.59
2023-04-13T04:21:36.990Z,53.55
2023-04-13T04:24:11.634Z,53.54
2023-04-13T04:26:40.386Z,53.46
2023-04-13T04:29:09.786Z,53.52
2023-04-13T04:31:43.936Z,53.53
2023-04-13T04:34:16.787Z,53.59
2023-04-13T04:36:50.305Z,53.59
2023-04-13T04:39:22.040Z,53.54
2023-04-13T04:41:54.220Z,53.62
2023-04-13T04:44:25.291Z,53.63
2023-04-13T04:46:55.304Z,53.64
2023-04-13T04:49:23.937Z,53.57
2023-04-13T04:51:53.000Z,53.69
2023-04-13T04:54:24.315Z,53.70
2023-04-13T04:56:53.266Z,53.73
2023-04-13T04:59:21.619Z,53.77
2023-04-13T05:01:50.528Z,53.71
2023-04-13T05:04:20.223Z,53.68
2023-04-13T05:06:49.280Z,53.64
2023-04-13T05:09:19.028Z,53.79
2023-04-13T05:11:47.405Z,53.86
2023-04-13T05:14:15.814Z,54.10
2023-04-13T05:16:44.637Z,54.16
2023-04-13T05:19:13.578Z,54.18
2023-04-13T05:21:43.250Z,54.22
2023-04-13T05:24:11.946Z,54.23
2023-04-13T05:26:40.236Z,54.25
2023-04-13T05:29:09.382Z,54.28
2023-04-13T05:31:38.012Z,54.38
2023-04-13T05:34:06.438Z,54.38
2023-04-13T05:36:34.711Z,54.34
2023-04-13T05:39:05.487Z,54.28
2023-04-13T05:41:33.912Z,54.42
2023-04-13T05:44:02.244Z,54.52
2023-04-13T05:46:30.553Z,54.64
2023-04-13T05:48:59.843Z,54.65
2023-04-13T05:51:30.894Z,54.81
2023-04-13T05:53:59.324Z,54.90
2023-04-13T05:56:29.839Z,54.97
2023-04-13T05:58:58.620Z,55.00
2023-04-13T06:01:29.664Z,55.08
2023-04-13T06:03:58.205Z,54.81
2023-04-13T06:06:26.663Z,55.02
2023-04-13T06:08:55.201Z,55.21
2023-04-13T06:11:29.927Z,55.02
2023-04-13T06:14:00.240Z,55.16
2023-04-13T06:16:28.775Z,55.29
2023-04-13T06:18:57.152Z,55.23
2023-04-13T06:21:27.043Z,55.26
2023-04-13T06:23:55.574Z,55.34
2023-04-13T06:26:25.089Z,55.23
2023-04-13T06:28:53.417Z,55.30
2023-04-13T06:31:23.401Z,55.32
2023-04-13T06:33:51.869Z,55.35
2023-04-13T06:36:20.264Z,55.22
2023-04-13T06:38:48.581Z,55.35
2023-04-13T06:41:16.969Z,55.27
2023-04-13T06:43:49.927Z,55.22
2023-04-13T06:46:19.690Z,55.00
2023-04-13T06:48:49.969Z,55.06
2023-04-13T06:51:18.248Z,55.14
2023-04-13T06:53:46.818Z,55.01
2023-04-13T06:56:15.114Z,54.91
2023-04-13T06:58:43.489Z,55.00
2023-04-13T07:01:12.455Z,54.89
2023-04-13T07:03:41.110Z,54.93
2023-04-13T07:06:11.649Z,54.96
2023-04-13T07:08:39.903Z,55.10
2023-04-13T07:11:10.168Z,54.96
2023-04-13T07:13:39.035Z,54.84
2023-04-13T07:16:08.931Z,54.73
2023-04-13T07:18:37.283Z,54.87
2023-04-13T07:21:07.166Z,54.86
2023-04-13T07:23:36.849Z,54.77
2023-04-13T07:26:06.296Z,54.80
2023-04-13T07:28:34.671Z,54.59
2023-04-13T07:31:03.598Z,54.55
2023-04-13T07:33:32.380Z,54.73
2023-04-13T07:36:00.705Z,54.83
2023-04-13T07:38:29.015Z,54.87
2023-04-13T07:40:58.651Z,55.31
2023-04-13T07:43:27.255Z,54.17
2023-04-13T07:45:55.820Z,54.08
2023-04-13T07:48:24.191Z,54.10
2023-04-13T07:50:52.788Z,53.65
2023-04-13T07:53:21.109Z,53.68
2023-04-13T07:55:49.464Z,52.73
2023-04-13T07:58:19.186Z,53.10
2023-04-13T08:00:47.588Z,53.53
2023-04-13T08:03:16.720Z,53.67
2023-04-13T08:05:47.084Z,53.69
2023-04-13T08:08:15.641Z,53.00
2023-04-13T08:10:43.955Z,52.78
2023-04-13T08:13:12.677Z,52.62
2023-04-13T08:15:42.460Z,52.25
2023-04-13T08:18:10.762Z,51.56
2023-04-13T08:20:39.242Z,51.44
2023-04-13T08:23:07.560Z,50.70
2023-04-13T08:25:43.377Z,50.07
2023-04-13T08:28:11.803Z,50.00
2023-04-13T08:30:41.722Z,49.88
2023-04-13T08:33:10.319Z,49.76
2023-04-13T08:35:39.538Z,48.57
2023-04-13T08:38:09.066Z,48.65
2023-04-13T08:40:40.115Z,48.52
2023-04-13T08:43:08.879Z,48.58
2023-04-13T08:45:37.822Z,47.94
2023-04-13T08:48:11.666Z,48.19
2023-04-13T08:50:40.040Z,48.64
2023-04-13T08:53:11.690Z,48.43
2023-04-13T08:55:46.968Z,47.30
2023-04-13T08:58:19.722Z,46.27
2023-04-13T09:00:50.176Z,46.63
2023-04-13T09:03:26.241Z,47.29
2023-04-13T09:06:00.983Z,47.00
2023-04-13T09:08:34.634Z,46.29
2023-04-13T09:11:03.612Z,44.56
2023-04-13T09:13:32.114Z,44.21
2023-04-13T09:16:02.752Z,43.69
2023-04-13T09:18:33.684Z,43.67
2023-04-13T09:21:02.233Z,43.65
2023-04-13T09:23:30.532Z,42.84
2023-04-13T09:26:09.545Z,43.43
2023-04-13T09:28:48.100Z,42.61
2023-04-13T09:31:17.219Z,42.63
2023-04-13T09:33:48.753Z,42.44
2023-04-13T09:36:19.405Z,42.23
2023-04-13T09:38:53.302Z,42.41
2023-04-13T09:41:32.731Z,42.58
2023-04-13T09:44:01.804Z,42.62
2023-04-13T09:46:30.298Z,42.29
2023-04-13T09:49:05.115Z,42.24
2023-04-13T09:51:41.984Z,42.41
2023-04-13T09:54:12.126Z,42.18
2023-04-13T09:56:48.248Z,42.28
2023-04-13T09:59:17.498Z,41.48
2023-04-13T10:01:46.108Z,40.77
2023-04-13T10:04:17.118Z,41.41
2023-04-13T10:06:46.904Z,40.98
2023-04-13T10:09:15.807Z,41.46
2023-04-13T10:11:47.725Z,41.15
2023-04-13T10:14:19.480Z,41.79
2023-04-13T10:17:16.912Z,41.81
2023-04-13T10:19:49.940Z,41.00
2023-04-13T10:22:20.224Z,40.95
2023-04-13T10:24:48.704Z,41.64
2023-04-13T10:27:22.423Z,41.60
2023-04-13T10:29:51.126Z,41.23
2023-04-13T10:32:24.124Z,41.65
2023-04-13T10:34:54.724Z,41.42
2023-04-13T10:37:29.710Z,40.32
2023-04-13T10:40:07.807Z,39.74
2023-04-13T10:45:21.414Z,38.21
2023-04-13T10:47:49.895Z,37.97
2023-04-13T10:50:22.301Z,38.43
2023-04-13T10:53:03.838Z,37.99
2023-04-13T10:55:33.040Z,37.05
2023-04-13T10:58:03.453Z,35.88
2023-04-13T11:00:45.439Z,36.77
2023-04-13T11:03:16.730Z,36.32
2023-04-13T11:05:47.646Z,34.05
2023-04-13T11:08:20.689Z,34.25
2023-04-13T11:10:53.645Z,35.84
2023-04-13T11:13:25.627Z,35.73
2023-04-13T11:16:02.478Z,36.09
2023-04-13T11:18:30.902Z,35.15
2023-04-13T11:21:04.677Z,34.60
2023-04-13T11:23:36.154Z,33.95
2023-04-13T11:26:05.303Z,33.83
2023-04-13T11:28:43.532Z,33.55
2023-04-13T11:31:12.797Z,31.99
2023-04-13T11:33:44.409Z,32.76
2023-04-13T11:36:14.353Z,33.13
2023-04-13T11:38:43.655Z,32.62
2023-04-13T11:41:16.813Z,32.05
2023-04-13T11:43:48.451Z,32.89
2023-04-13T11:46:25.382Z,32.88
2023-04-13T11:48:56.379Z,32.64
2023-04-13T11:51:26.764Z,32.96
2023-04-13T11:53:55.465Z,32.45
2023-04-13T11:56:25.896Z,33.01
2023-04-13T11:58:54.652Z,32.91
2023-04-13T12:01:27.185Z,32.81
2023-04-13T12:04:14.856Z,32.54
2023-04-13T12:06:48.698Z,33.03
2023-04-13T12:09:20.349Z,32.82
2023-04-13T12:12:07.901Z,32.76
2023-04-13T12:19:51.825Z,32.25
2023-04-13T12:22:22.817Z,31.60
2023-04-13T12:24:53.506Z,31.97
2023-04-13T12:27:21.976Z,31.88
2023-04-13T12:29:50.298Z,31.58
2023-04-13T12:32:21.123Z,31.75
2023-04-13T12:34:49.472Z,31.74
2023-04-13T12:37:17.805Z,31.42
2023-04-13T12:39:47.730Z,31.76
2023-04-13T12:42:16.149Z,32.36
2023-04-13T12:44:44.477Z,31.52
2023-04-13T12:47:12.912Z,31.53
2023-04-13T12:49:41.213Z,31.17
2023-04-13T12:52:09.583Z,31.36
2023-04-13T12:54:37.885Z,30.97
2023-04-13T12:57:10.437Z,31.52
2023-04-13T12:59:38.738Z,31.62
2023-04-13T13:02:07.985Z,31.41
2023-04-13T13:04:36.410Z,31.75
2023-04-13T13:07:04.801Z,31.80
2023-04-13T13:09:33.122Z,31.86
2023-04-13T13:12:02.670Z,31.64
2023-04-13T13:14:32.956Z,31.80
2023-04-13T13:17:02.803Z,31.65
2023-04-13T13:19:31.319Z,31.70
2023-04-13T13:22:00.905Z,31.95
2023-04-13T13:24:29.231Z,32.56
2023-04-13T13:29:33.173Z,33.18
2023-04-13T13:32:03.011Z,33.36
2023-04-13T13:34:31.754Z,33.21
2023-04-13T13:37:00.199Z,33.34
2023-04-13T13:39:28.507Z,32.98
2023-04-13T13:41:57.360Z,33.66
2023-04-13T13:44:25.929Z,33.49
2023-04-13T13:46:54.325Z,33.21
2023-04-13T13:49:24.937Z,33.12
2023-04-13T13:51:54.100Z,33.31
2023-04-13T13:54:22.886Z,33.39
2023-04-13T13:56:51.629Z,33.56
2023-04-13T13:59:20.067Z,33.49
2023-04-13T14:01:48.838Z,33.70
2023-04-13T14:04:17.248Z,34.00
2023-04-13T14:06:49.623Z,34.00
2023-04-13T14:09:18.926Z,33.95
2023-04-13T14:11:47.402Z,34.16
2023-04-13T14:14:21.725Z,33.83
2023-04-13T14:16:50.987Z,34.21
2023-04-13T14:19:20.833Z,34.12
2023-04-13T14:21:50.966Z,33.98
2023-04-13T14:24:19.436Z,34.03
2023-04-13T14:26:47.808Z,33.61
2023-04-13T14:29:16.307Z,33.71
2023-04-13T14:31:44.718Z,33.73
2023-04-13T14:34:13.241Z,34.00
2023-04-13T14:36:42.351Z,33.95
2023-04-13T14:39:12.132Z,34.31
2023-04-13T14:41:40.590Z,34.38
2023-04-13T14:44:08.942Z,34.62
2023-04-13T14:46:37.430Z,34.69
2023-04-13T14:49:05.904Z,34.72
2023-04-13T14:51:34.479Z,34.36
2023-04-13T14:54:02.934Z,34.03
2023-04-13T14:56:32.717Z,33.97
2023-04-13T14:59:01.378Z,34.34
2023-04-13T15:01:30.185Z,34.57
2023-04-13T15:03:58.788Z,34.58
2023-04-13T15:06:28.154Z,34.26
2023-04-13T15:08:56.717Z,34.26
2023-04-13T15:11:25.161Z,34.74
2023-04-13T15:13:55.176Z,34.69
2023-04-13T15:16:23.632Z,34.23
2023-04-13T15:18:52.123Z,34.32
2023-04-13T15:21:20.523Z,34.65
2023-04-13T15:23:48.910Z,34.48
2023-04-13T15:26:18.777Z,34.44
2023-04-13T15:28:47.306Z,34.22
2023-04-13T15:31:17.189Z,34.41
2023-04-13T15:33:45.598Z,34.86
2023-04-13T15:36:19.088Z,34.92
2023-04-13T15:38:47.509Z,34.81
2023-04-13T15:41:16.236Z,35.16
2023-04-13T15:43:44.824Z,35.16
2023-04-13T15:46:13.431Z,35.07
2023-04-13T15:48:43.185Z,35.10
2023-04-13T15:51:12.293Z,35.20
2023-04-13T15:53:40.938Z,35.52
2023-04-13T15:56:10.291Z,35.80
2023-04-13T15:58:38.827Z,36.29
2023-04-13T16:03:39.073Z,36.00
2023-04-13T16:06:10.655Z,36.01
2023-04-13T16:08:39.853Z,35.91
2023-04-13T16:11:08.203Z,35.92
2023-04-13T16:13:49.002Z,36.15
2023-04-13T16:16:18.535Z,36.05
2023-04-13T16:18:47.487Z,36.16
2023-04-13T16:21:19.949Z,36.06
2023-04-13T16:23:48.576Z,36.33
2023-04-13T16:26:16.919Z,36.30
2023-04-13T16:28:45.548Z,36.42
2023-04-13T16:31:14.017Z,36.71
2023-04-13T16:33:42.368Z,36.27
2023-04-13T16:36:11.633Z,36.17
2023-04-13T16:38:42.870Z,36.08
2023-04-13T16:41:11.825Z,36.27
2023-04-13T16:43:40.151Z,36.16
2023-04-13T16:46:08.501Z,35.86
2023-04-13T16:48:36.843Z,36.16
2023-04-13T16:51:05.762Z,36.28
2023-04-13T16:53:34.266Z,36.36
2023-04-13T16:56:04.079Z,36.25
2023-04-13T16:58:32.820Z,35.84
2023-04-13T17:01:01.271Z,36.22
2023-04-13T17:03:29.936Z,35.90
2023-04-13T17:05:58.527Z,35.87
2023-04-13T17:08:26.855Z,36.13
2023-04-13T17:10:55.207Z,35.89
2023-04-13T17:13:24.906Z,36.10
2023-04-13T17:15:53.220Z,36.33
2023-04-13T17:18:21.618Z,36.38
2023-04-13T17:20:57.549Z,36.70
2023-04-13T17:23:25.933Z,36.71
2023-04-13T17:25:56.277Z,36.77
2023-04-13T17:28:26.231Z,36.75
2023-04-13T17:30:54.535Z,36.69
2023-04-13T17:33:24.279Z,36.79
2023-04-13T17:35:54.827Z,36.64
2023-04-13T17:38:23.200Z,36.60
2023-04-13T17:40:52.176Z,36.81
2023-04-13T17:43:20.605Z,36.81
2023-04-13T17:45:50.349Z,37.30
2023-04-13T17:48:18.803Z,37.27
2023-04-13T17:50:47.085Z,37.01
2023-04-13T17:53:15.564Z,37.34
2023-04-13T17:55:46.766Z,37.54
2023-04-13T17:58:15.089Z,37.75
2023-04-13T18:00:43.479Z,37.78
2023-04-13T18:03:14.207Z,38.06
2023-04-13T18:05:45.483Z,38.21
2023-04-13T18:08:13.816Z,38.24
2023-04-13T18:10:44.806Z,38.34
2023-04-13T18:13:13.122Z,38.23
2023-04-13T18:15:41.568Z,38.21
2023-04-13T18:18:09.914Z,38.52
2023-04-13T18:20:39.597Z,38.83
2023-04-13T18:23:10.922Z,38.91
2023-04-13T18:25:39.789Z,39.23
2023-04-13T18:28:11.110Z,39.26
2023-04-13T18:30:39.453Z,39.59
2023-04-13T18:33:07.795Z,39.37
2023-04-13T18:35:36.373Z,39.46
2023-04-13T18:38:06.086Z,39.45
2023-04-13T18:40:34.396Z,39.82
2023-04-13T18:43:02.773Z,39.75
2023-04-13T18:45:31.136Z,39.69
2023-04-13T18:48:02.047Z,39.94
2023-04-13T18:50:30.539Z,40.07
2023-04-13T18:52:58.830Z,39.93
2023-04-13T18:55:29.177Z,40.21
2023-04-13T18:57:57.741Z,40.26
2023-04-13T19:00:26.404Z,40.09
2023-04-13T19:02:57.163Z,40.04
2023-04-13T19:05:26.438Z,40.22
2023-04-13T19:07:59.669Z,40.29
2023-04-13T19:10:29.496Z,40.35
2023-04-13T19:12:57.838Z,40.43
2023-04-13T19:15:26.671Z,40.57
2023-04-13T19:17:55.282Z,40.52
2023-04-13T19:20:25.221Z,40.31
2023-04-13T19:22:53.611Z,40.29
2023-04-13T19:25:24.709Z,40.30
2023-04-13T19:27:54.476Z,40.39
2023-04-13T19:30:22.815Z,40.29
2023-04-13T19:32:52.726Z,40.68
2023-04-13T19:35:22.415Z,40.61
2023-04-13T19:37:50.981Z,40.83
2023-04-13T19:40:19.529Z,41.03
2023-04-13T19:42:48.509Z,40.91
2023-04-13T19:45:18.792Z,41.18
2023-04-13T19:47:47.655Z,41.27
2023-04-13T19:50:16.659Z,41.15
2023-04-13T19:52:47.490Z,41.23
2023-04-13T19:55:16.062Z,41.27
2023-04-13T19:57:44.471Z,41.46
2023-04-13T20:00:22.441Z,41.38
2023-04-13T20:02:53.076Z,41.45
2023-04-13T20:05:22.547Z,41.70
2023-04-13T20:07:50.966Z,41.92
2023-04-13T20:10:19.411Z,42.11
2023-04-13T20:12:47.803Z,42.27
2023-04-13T20:15:16.482Z,42.34
2023-04-13T20:17:44.843Z,42.61
2023-04-13T20:20:15.369Z,42.65
2023-04-13T20:22:43.763Z,42.47
2023-04-13T20:25:12.130Z,42.67
2023-04-13T20:27:41.906Z,42.66
2023-04-13T20:30:11.842Z,42.63
2023-04-13T20:32:40.404Z,43.16
2023-04-13T20:35:10.445Z,43.22
2023-04-13T20:37:40.146Z,43.10
2023-04-13T20:40:11.405Z,43.48
2023-04-13T20:42:42.275Z,43.59
2023-04-13T20:45:14.158Z,43.70
2023-04-13T20:47:43.344Z,43.74
2023-04-13T20:50:13.340Z,43.75
2023-04-13T20:52:43.339Z,43.81
2023-04-13T20:55:12.735Z,43.98
2023-04-13T20:57:42.152Z,44.21
2023-04-13T21:00:15.575Z,44.38
2023-04-13T21:02:46.890Z,44.18
2023-04-13T21:05:15.490Z,44.42
2023-04-13T21:07:45.401Z,44.50
2023-04-13T21:10:17.650Z,44.60
2023-04-13T21:12:46.296Z,44.70
2023-04-13T21:15:15.126Z,44.90
2023-04-13T21:17:43.617Z,45.05
2023-04-13T21:20:13.760Z,44.85
2023-04-13T21:22:42.272Z,45.02
2023-04-13T21:25:12.308Z,45.10
2023-04-13T21:27:41.055Z,44.96
2023-04-13T21:30:10.928Z,45.04
2023-04-13T21:32:39.342Z,45.07
2023-04-13T21:35:09.296Z,45.10
2023-04-13T21:37:37.688Z,45.00
2023-04-13T21:40:07.352Z,45.18
2023-04-13T21:42:38.156Z,45.26
2023-04-13T21:45:07.844Z,45.34
2023-04-13T21:47:36.334Z,45.37
2023-04-13T21:50:15.395Z,45.37
2023-04-13T21:52:43.964Z,45.29
2023-04-13T21:55:18.095Z,45.62
2023-04-13T21:57:48.942Z,45.85
2023-04-13T22:00:18.435Z,46.01
2023-04-13T22:02:46.927Z,46.09
2023-04-13T22:05:16.853Z,45.93
2023-04-13T22:07:45.273Z,46.11
2023-04-13T22:10:19.409Z,45.96
2023-04-13T22:12:49.379Z,46.08
2023-04-13T22:15:17.840Z,46.09
2023-04-13T22:17:46.212Z,46.07
2023-04-13T22:20:19.613Z,46.17
2023-04-13T22:22:47.976Z,46.37
2023-04-13T22:25:16.460Z,46.57
2023-04-13T22:27:45.039Z,46.43
2023-04-13T22:30:17.082Z,46.69
2023-04-13T22:32:45.445Z,46.63
2023-04-13T22:35:14.488Z,46.69
2023-04-13T22:37:42.816Z,46.75
2023-04-13T22:40:12.251Z,46.82
2023-04-13T22:42:40.741Z,46.88
2023-04-13T22:45:10.349Z,47.08
2023-04-13T22:47:40.076Z,46.94
2023-04-13T22:50:12.002Z,47.04
2023-04-13T22:52:40.439Z,46.99
2023-04-13T22:55:11.887Z,47.25
2023-04-13T22:57:40.202Z,47.16
2023-04-13T23:00:12.643Z,47.37
2023-04-13T23:02:42.892Z,47.42
2023-04-13T23:05:14.457Z,47.44
2023-04-13T23:07:42.842Z,47.57
2023-04-13T23:10:11.557Z,47.56
2023-04-13T23:12:40.025Z,47.55
2023-04-13T23:15:09.558Z,47.69
2023-04-13T23:17:39.882Z,47.64
2023-04-13T23:20:18.261Z,47.99
2023-04-13T23:22:46.649Z,47.99
2023-04-13T23:25:14.984Z,48.01
2023-04-13T23:27:43.346Z,48.11
2023-04-13T23:30:16.187Z,48.07
2023-04-13T23:32:44.574Z,48.16
2023-04-13T23:35:14.315Z,48.15
2023-04-13T23:37:43.514Z,48.26
2023-04-13T23:40:14.857Z,48.47
2023-04-13T23:42:43.188Z,48.50
2023-04-13T23:45:12.141Z,48.36
2023-04-13T23:47:40.703Z,48.68
2023-04-13T23:50:09.837Z,48.69
2023-04-13T23:52:39.517Z,48.70
2023-04-13T23:55:09.081Z,48.78
2023-04-13T23:57:37.479Z,48.87
